createdAt,value
2019-02-03T00:00:40.000Z,99718
2019-02-03T00:01:40.000Z,99716
2019-02-03T00:02:40.000Z,99719
2019-02-03T00:04:40.000Z,99717
2019-02-03T00:06:40.000Z,99719
2019-02-03T00:08:40.000Z,99727
2019-02-03T00:10:40.000Z,99726
2019-02-03T00:12:10.000Z,99726
2019-02-03T00:14:25.000Z,99727
2019-02-03T00:16:40.000Z,99728
2019-02-03T00:17:40.000Z,99726
2019-02-03T00:19:40.000Z,99730
2019-02-03T00:21:40.000Z,99733
2019-02-03T00:23:25.000Z,99729
2019-02-03T00:24:25.000Z,99729
2019-02-03T00:26:40.000Z,99731
2019-02-03T00:28:10.000Z,99729
2019-02-03T00:29:40.000Z,99733
2019-02-03T00:31:25.000Z,99736
2019-02-03T00:32:40.000Z,99738
2019-02-03T00:34:40.000Z,99750
2019-02-03T00:35:40.000Z,99751
2019-02-03T00:37:10.000Z,99759
2019-02-03T00:38:23.000Z,99761
2019-02-03T00:39:25.000Z,99756
2019-02-03T00:41:40.000Z,99762
2019-02-03T00:43:40.000Z,99770
2019-02-03T00:44:40.000Z,99769
2019-02-03T00:46:40.000Z,99772
2019-02-03T00:48:25.000Z,99774
2019-02-03T00:49:40.000Z,99777
2019-02-03T00:51:40.000Z,99790
2019-02-03T00:53:10.000Z,99789
2019-02-03T00:54:40.000Z,99794
2019-02-03T00:56:25.000Z,99801
2019-02-03T00:57:40.000Z,99809
2019-02-03T00:58:40.000Z,99803
2019-02-03T01:00:40.000Z,99808
2019-02-03T01:02:40.000Z,99805
2019-02-03T01:04:40.000Z,99803
2019-02-03T01:06:40.000Z,99803
2019-02-03T01:08:40.000Z,99806
2019-02-03T01:10:24.000Z,99810
2019-02-03T01:11:25.000Z,99809
2019-02-03T01:13:40.000Z,99809
2019-02-03T01:14:40.000Z,99811
2019-02-03T01:15:40.000Z,99815
2019-02-03T01:16:40.000Z,99820
2019-02-03T01:18:40.000Z,99815
2019-02-03T01:20:09.000Z,99821
2019-02-03T01:21:25.000Z,99826
2019-02-03T01:22:40.000Z,99826
2019-02-03T01:24:40.000Z,99825
2019-02-03T01:26:40.000Z,99830
2019-02-03T01:28:24.000Z,99838
2019-02-03T01:29:40.000Z,99837
2019-02-03T01:31:40.000Z,99842
2019-02-03T01:32:40.000Z,99843
2019-02-03T01:34:40.000Z,99845
2019-02-03T01:36:24.000Z,99845
2019-02-03T01:37:40.000Z,99847
2019-02-03T01:39:24.000Z,99849
2019-02-03T01:40:40.000Z,99848
2019-02-03T01:42:24.000Z,99850
2019-02-03T01:43:25.000Z,99846
2019-02-03T01:45:40.000Z,99852
2019-02-03T01:47:40.000Z,99859
2019-02-03T01:49:24.000Z,99860
2019-02-03T01:51:40.000Z,99861
2019-02-03T01:52:40.000Z,99864
2019-02-03T01:53:40.000Z,99864
2019-02-03T01:55:24.000Z,99862
2019-02-03T01:56:40.000Z,99864
2019-02-03T01:58:10.000Z,99861
2019-02-03T01:59:40.000Z,99860
2019-02-03T02:01:24.000Z,99866
2019-02-03T02:02:40.000Z,99869
2019-02-03T02:04:40.000Z,99876
2019-02-03T02:06:10.000Z,99879
2019-02-03T02:07:40.000Z,99883
2019-02-03T02:09:40.000Z,99880
2019-02-03T02:10:40.000Z,99881
2019-02-03T02:11:40.000Z,99878
2019-02-03T02:13:25.000Z,99882
2019-02-03T02:15:40.000Z,99881
2019-02-03T02:17:25.000Z,99883
2019-02-03T02:18:40.000Z,99887
2019-02-03T02:19:40.000Z,99885
2019-02-03T02:21:40.000Z,99888
2019-02-03T02:23:40.000Z,99885
2019-02-03T02:25:40.000Z,99883
2019-02-03T02:26:40.000Z,99882
2019-02-03T02:28:40.000Z,99882
2019-02-03T02:30:10.000Z,99883
2019-02-03T02:31:40.000Z,99883
2019-02-03T02:33:25.000Z,99891
2019-02-03T02:34:40.000Z,99888
2019-02-03T02:35:40.000Z,99892
2019-02-03T02:36:40.000Z,99891
2019-02-03T02:38:10.000Z,99894
2019-02-03T02:39:40.000Z,99898
2019-02-03T02:41:40.000Z,99899
2019-02-03T02:43:40.000Z,99898
2019-02-03T02:45:40.000Z,99898
2019-02-03T02:47:40.000Z,99896
2019-02-03T02:49:25.000Z,99900
2019-02-03T02:50:40.000Z,99900
2019-02-03T02:51:40.000Z,99900
2019-02-03T02:53:25.000Z,99904
2019-02-03T02:55:40.000Z,99901
2019-02-03T02:57:25.000Z,99906
2019-02-03T02:58:40.000Z,99906
2019-02-03T03:00:40.000Z,99911
2019-02-03T03:01:40.000Z,99911
2019-02-03T03:03:40.000Z,99917
2019-02-03T03:05:25.000Z,99918
2019-02-03T03:06:40.000Z,99924
2019-02-03T03:08:10.000Z,99920
2019-02-03T03:09:40.000Z,99923
2019-02-03T03:11:25.000Z,99918
2019-02-03T03:12:25.000Z,99919
2019-02-03T03:14:39.000Z,99927
2019-02-03T03:16:39.000Z,99928
2019-02-03T03:17:40.000Z,99929
2019-02-03T03:19:39.000Z,99925
2019-02-03T03:21:24.000Z,99922
2019-02-03T03:22:40.000Z,99927
2019-02-03T03:24:39.000Z,99927
2019-02-03T03:25:40.000Z,99924
2019-02-03T03:27:40.000Z,99926
2019-02-03T03:29:39.000Z,99926
2019-02-03T03:30:40.000Z,99922
2019-02-03T03:32:09.000Z,99924
2019-02-03T03:33:39.000Z,99920
2019-02-03T03:35:39.000Z,99930
2019-02-03T03:37:09.000Z,99928
2019-02-03T03:38:25.000Z,99934
2019-02-03T03:40:39.000Z,99941
2019-02-03T03:41:39.000Z,99939
2019-02-03T03:43:40.000Z,99939
2019-02-03T03:45:24.000Z,99952
2019-02-03T03:46:40.000Z,99947
2019-02-03T03:48:40.000Z,99946
2019-02-03T03:50:39.000Z,99947
2019-02-03T03:52:24.000Z,99948
2019-02-03T03:53:40.000Z,99949
2019-02-03T03:54:40.000Z,99945
2019-02-03T03:56:39.000Z,99944
2019-02-03T03:58:40.000Z,99943
2019-02-03T04:00:39.000Z,99943
2019-02-03T04:01:39.000Z,99942
2019-02-03T04:03:40.000Z,99938
2019-02-03T04:05:40.000Z,99939
2019-02-03T04:07:10.000Z,99941
2019-02-03T04:08:39.000Z,99945
2019-02-03T04:10:40.000Z,99952
2019-02-03T04:11:40.000Z,99951
2019-02-03T04:13:39.000Z,99964
2019-02-03T04:15:10.000Z,99974
2019-02-03T04:16:40.000Z,99979
2019-02-03T04:18:40.000Z,99991
2019-02-03T04:20:40.000Z,99994
2019-02-03T04:22:40.000Z,100001
2019-02-03T04:24:40.000Z,100011
2019-02-03T04:26:10.000Z,100010
2019-02-03T04:27:40.000Z,100017
2019-02-03T04:29:10.000Z,100017
2019-02-03T04:30:40.000Z,100023
2019-02-03T04:32:40.000Z,100028
2019-02-03T04:34:09.000Z,100030
2019-02-03T04:35:40.000Z,100040
2019-02-03T04:36:40.000Z,100043
2019-02-03T04:38:40.000Z,100049
2019-02-03T04:40:40.000Z,100060
2019-02-03T04:42:24.000Z,100071
2019-02-03T04:43:40.000Z,100073
2019-02-03T04:45:40.000Z,100076
2019-02-03T04:47:10.000Z,100078
2019-02-03T04:48:40.000Z,100084
2019-02-03T04:50:24.000Z,100094
2019-02-03T04:51:40.000Z,100099
2019-02-03T04:53:40.000Z,100102
2019-02-03T04:54:40.000Z,100110
2019-02-03T04:56:40.000Z,100106
2019-02-03T04:58:24.000Z,100113
2019-02-03T04:59:24.000Z,100116
2019-02-03T05:00:40.000Z,100120
2019-02-03T05:02:40.000Z,100122
2019-02-03T05:04:40.000Z,100135
2019-02-03T05:06:24.000Z,100140
2019-02-03T05:07:40.000Z,100137
2019-02-03T05:09:10.000Z,100132
2019-02-03T05:52:14.000Z,100202
2019-02-03T05:53:45.000Z,100201
2019-02-03T05:55:30.000Z,100197
2019-02-03T05:56:45.000Z,100196
2019-02-03T05:58:45.000Z,100201
2019-02-03T05:59:45.000Z,100199
2019-02-03T06:01:45.000Z,100198
2019-02-03T06:03:45.000Z,100209
2019-02-03T06:04:45.000Z,100213
2019-02-03T06:06:45.000Z,100218
2019-02-03T06:08:15.000Z,100224
2019-02-03T06:09:30.000Z,100215
2019-02-03T06:11:45.000Z,100217
2019-02-03T06:12:45.000Z,100214
2019-02-03T06:14:45.000Z,100216
2019-02-03T06:16:30.000Z,100217
2019-02-03T06:17:45.000Z,100214
2019-02-03T06:19:30.000Z,100215
2019-02-03T06:20:30.000Z,100220
2019-02-03T06:21:45.000Z,100215
2019-02-03T06:22:45.000Z,100221
2019-02-03T06:24:15.000Z,100226
2019-02-03T06:25:45.000Z,100224
2019-02-03T06:27:45.000Z,100221
2019-02-03T06:29:30.000Z,100217
2019-02-03T06:30:45.000Z,100221
2019-02-03T06:31:45.000Z,100223
2019-02-03T06:33:45.000Z,100227
2019-02-03T06:35:30.000Z,100229
2019-02-03T06:36:45.000Z,100229
2019-02-03T06:38:45.000Z,100235
2019-02-03T06:40:45.000Z,100234
2019-02-03T06:41:45.000Z,100235
2019-02-03T06:43:45.000Z,100239
2019-02-03T06:45:45.000Z,100235
2019-02-03T06:47:45.000Z,100233
2019-02-03T06:48:45.000Z,100232
2019-02-03T06:50:30.000Z,100239
2019-02-03T06:51:30.000Z,100239
2019-02-03T06:53:30.000Z,100242
2019-02-03T06:54:45.000Z,100249
2019-02-03T06:56:45.000Z,100252
2019-02-03T06:58:45.000Z,100248
2019-02-03T07:00:30.000Z,100239
2019-02-03T07:01:45.000Z,100243
2019-02-03T07:02:45.000Z,100242
2019-02-03T07:03:45.000Z,100242
2019-02-03T07:05:15.000Z,100249
2019-02-03T07:06:45.000Z,100255
2019-02-03T07:08:45.000Z,100260
2019-02-03T07:10:45.000Z,100266
2019-02-03T07:12:45.000Z,100260
2019-02-03T07:14:45.000Z,100266
2019-02-03T07:16:30.000Z,100260
2019-02-03T07:18:30.000Z,100275
2019-02-03T07:20:45.000Z,100274
2019-02-03T07:22:45.000Z,100275
2019-02-03T07:23:45.000Z,100271
2019-02-03T07:25:30.000Z,100282
2019-02-03T07:26:45.000Z,100279
2019-02-03T07:27:45.000Z,100284
2019-02-03T07:29:16.000Z,100286
2019-02-03T07:30:45.000Z,100289
2019-02-03T07:32:15.000Z,100289
2019-02-03T07:33:45.000Z,100288
2019-02-03T07:35:45.000Z,100293
2019-02-03T07:37:15.000Z,100291
2019-02-03T07:38:45.000Z,100297
2019-02-03T07:40:15.000Z,100298
2019-02-03T07:41:45.000Z,100295
2019-02-03T07:43:45.000Z,100307
2019-02-03T07:45:15.000Z,100306
2019-02-03T07:46:45.000Z,100308
2019-02-03T07:48:30.000Z,100312
2019-02-03T07:49:30.000Z,100316
2019-02-03T07:50:45.000Z,100319
2019-02-03T07:51:45.000Z,100325
2019-02-03T07:53:15.000Z,100327
2019-02-03T07:54:45.000Z,100333
2019-02-03T07:56:30.000Z,100329
2019-02-03T07:57:45.000Z,100334
2019-02-03T07:59:45.000Z,100336
2019-02-03T08:01:16.000Z,100334
2019-02-03T08:02:45.000Z,100338
2019-02-03T08:04:30.000Z,100329
2019-02-03T08:05:45.000Z,100335
2019-02-03T08:07:45.000Z,100331
2019-02-03T08:09:15.000Z,100340
2019-02-03T08:10:26.000Z,100338
2019-02-03T08:11:45.000Z,100346
2019-02-03T08:12:45.000Z,100347
2019-02-03T08:14:45.000Z,100352
2019-02-03T08:15:45.000Z,100360
2019-02-03T08:17:15.000Z,100354
2019-02-03T08:18:45.000Z,100367
2019-02-03T08:19:45.000Z,100368
2019-02-03T08:20:45.000Z,100372
2019-02-03T08:22:45.000Z,100373
2019-02-03T08:23:45.000Z,100376
2019-02-03T08:24:45.000Z,100371
2019-02-03T08:26:45.000Z,100379
2019-02-03T08:27:45.000Z,100384
2019-02-03T08:29:30.000Z,100384
2019-02-03T08:30:45.000Z,100390
2019-02-03T08:31:45.000Z,100388
2019-02-03T08:33:45.000Z,100387
2019-02-03T08:34:45.000Z,100389
2019-02-03T08:36:45.000Z,100393
2019-02-03T08:38:30.000Z,100394
2019-02-03T08:39:45.000Z,100393
2019-02-03T08:41:45.000Z,100398
2019-02-03T08:43:45.000Z,100406
2019-02-03T08:45:45.000Z,100409
2019-02-03T08:47:45.000Z,100412
2019-02-03T08:48:45.000Z,100418
2019-02-03T08:50:30.000Z,100413
2019-02-03T08:52:30.000Z,100418
2019-02-03T08:53:45.000Z,100420
2019-02-03T08:55:45.000Z,100428
2019-02-03T08:56:45.000Z,100429
2019-02-03T08:58:30.000Z,100422
2019-02-03T08:59:45.000Z,100429
2019-02-03T09:00:45.000Z,100429
2019-02-03T09:02:45.000Z,100437
2019-02-03T09:03:45.000Z,100436
2019-02-03T09:05:15.000Z,100426
2019-02-03T09:06:45.000Z,100434
2019-02-03T09:07:45.000Z,100436
2019-02-03T09:08:45.000Z,100438
2019-02-03T09:10:45.000Z,100436
2019-02-03T09:12:30.000Z,100441
2019-02-03T09:14:45.000Z,100445
2019-02-03T09:15:45.000Z,100451
2019-02-03T09:17:30.000Z,100449
2019-02-03T09:18:45.000Z,100442
2019-02-03T09:19:45.000Z,100445
2019-02-03T09:21:15.000Z,100449
2019-02-03T09:22:45.000Z,100448
2019-02-03T09:23:45.000Z,100448
2019-02-03T09:25:45.000Z,100452
2019-02-03T09:27:30.000Z,100454
2019-02-03T09:28:45.000Z,100449
2019-02-03T09:30:45.000Z,100457
2019-02-03T09:31:45.000Z,100461
2019-02-03T09:33:45.000Z,100463
2019-02-03T09:35:45.000Z,100464
2019-02-03T09:36:45.000Z,100470
2019-02-03T09:38:30.000Z,100470
2019-02-03T09:39:45.000Z,100472
2019-02-03T09:41:45.000Z,100478
2019-02-03T09:43:30.000Z,100476
2019-02-03T09:44:45.000Z,100479
2019-02-03T09:46:45.000Z,100478
2019-02-03T09:47:45.000Z,100482
2019-02-03T09:49:45.000Z,100482
2019-02-03T09:50:45.000Z,100484
2019-02-03T09:52:45.000Z,100485
2019-02-03T09:54:30.000Z,100486
2019-02-03T09:56:45.000Z,100493
2019-02-03T09:58:45.000Z,100504
2019-02-03T09:59:45.000Z,100499
2019-02-03T10:00:45.000Z,100506
2019-02-03T10:02:30.000Z,100512
2019-02-03T10:04:45.000Z,100512
2019-02-03T10:06:45.000Z,100520
2019-02-03T10:07:45.000Z,100524
2019-02-03T10:09:45.000Z,100530
2019-02-03T10:11:30.000Z,100536
2019-02-03T10:12:45.000Z,100541
2019-02-03T10:14:30.000Z,100542
2019-02-03T10:15:45.000Z,100539
2019-02-03T10:17:45.000Z,100541
2019-02-03T10:19:30.000Z,100540
2019-02-03T10:20:45.000Z,100541
2019-02-03T10:22:45.000Z,100541
2019-02-03T10:24:30.000Z,100546
2019-02-03T10:26:30.000Z,100550
2019-02-03T10:27:45.000Z,100549
2019-02-03T10:28:45.000Z,100551
2019-02-03T10:30:45.000Z,100548
2019-02-03T10:32:45.000Z,100553
2019-02-03T10:34:45.000Z,100564
2019-02-03T10:36:30.000Z,100554
2019-02-03T10:38:45.000Z,100563
2019-02-03T10:40:45.000Z,100565
2019-02-03T10:42:30.000Z,100563
2019-02-03T10:44:45.000Z,100565
2019-02-03T10:46:45.000Z,100568
2019-02-03T10:48:45.000Z,100566
2019-02-03T10:50:29.000Z,100573
2019-02-03T10:51:30.000Z,100574
2019-02-03T10:52:45.000Z,100575
2019-02-03T10:53:45.000Z,100577
2019-02-03T10:54:45.000Z,100574
2019-02-03T10:56:15.000Z,100572
2019-02-03T10:57:45.000Z,100574
2019-02-03T10:58:45.000Z,100579
2019-02-03T11:00:15.000Z,100581
2019-02-03T11:02:15.000Z,100581
2019-02-03T11:09:32.000Z,100589
2019-02-03T11:11:17.000Z,100594
2019-02-03T11:13:17.000Z,100600
2019-02-03T11:15:17.000Z,100594
2019-02-03T11:17:17.000Z,100593
2019-02-03T11:19:02.000Z,100600
2019-02-03T11:20:02.000Z,100604
2019-02-03T11:21:17.000Z,100606
2019-02-03T11:23:17.000Z,100611
2019-02-03T11:25:02.000Z,100609
2019-02-03T11:27:02.000Z,100613
2019-02-03T11:28:17.000Z,100617
2019-02-03T11:29:17.000Z,100613
2019-02-03T11:30:47.000Z,100616
2019-02-03T11:32:17.000Z,100619
2019-02-03T11:34:02.000Z,100612
2019-02-03T11:35:17.000Z,100616
2019-02-03T11:37:17.000Z,100620
2019-02-03T11:39:17.000Z,100622
2019-02-03T11:41:17.000Z,100627
2019-02-03T11:43:17.000Z,100626
2019-02-03T11:44:17.000Z,100631
2019-02-03T11:45:48.000Z,100640
2019-02-03T11:47:18.000Z,100639
2019-02-03T11:49:03.000Z,100644
2019-02-03T11:50:18.000Z,100643
2019-02-03T11:52:18.000Z,100644
2019-02-03T11:53:48.000Z,100646
2019-02-03T11:55:18.000Z,100645
2019-02-03T11:57:18.000Z,100650
2019-02-03T11:58:18.000Z,100649
2019-02-03T12:00:18.000Z,100649
2019-02-03T12:02:18.000Z,100656
2019-02-03T12:04:18.000Z,100659
2019-02-03T12:05:18.000Z,100658
2019-02-03T12:06:18.000Z,100660
2019-02-03T12:08:03.000Z,100660
2019-02-03T12:09:18.000Z,100664
2019-02-03T12:10:48.000Z,100670
2019-02-03T12:13:03.000Z,100674
2019-02-03T12:15:03.000Z,100667
2019-02-03T12:16:18.000Z,100670
2019-02-03T12:18:18.000Z,100673
2019-02-03T12:20:18.000Z,100676
2019-02-03T12:22:03.000Z,100676
2019-02-03T12:23:18.000Z,100679
2019-02-03T12:25:03.000Z,100686
2019-02-03T12:26:03.000Z,100682
2019-02-03T12:28:03.000Z,100692
2019-02-03T12:29:03.000Z,100690
2019-02-03T12:31:03.000Z,100684
2019-02-03T12:32:18.000Z,100687
2019-02-03T12:34:18.000Z,100689
2019-02-03T12:36:18.000Z,100687
2019-02-03T12:38:18.000Z,100687
2019-02-03T12:40:18.000Z,100686
2019-02-03T12:42:03.000Z,100685
2019-02-03T12:43:48.000Z,100680
2019-02-03T12:45:18.000Z,100693
2019-02-03T12:47:03.000Z,100684
2019-02-03T12:48:18.000Z,100690
2019-02-03T12:50:18.000Z,100694
2019-02-03T12:51:17.000Z,100692
2019-02-03T12:53:17.000Z,100693
2019-02-03T12:54:17.000Z,100693
2019-02-03T12:56:02.000Z,100696
2019-02-03T12:57:17.000Z,100701
2019-02-03T12:58:17.000Z,100700
2019-02-03T13:00:17.000Z,100704
2019-02-03T13:02:17.000Z,100698
2019-02-03T13:03:17.000Z,100703
2019-02-03T13:05:17.000Z,100705
2019-02-03T13:06:17.000Z,100708
2019-02-03T13:07:17.000Z,100703
2019-02-03T13:08:17.000Z,100703
2019-02-03T13:10:02.000Z,100702
2019-02-03T13:11:17.000Z,100710
2019-02-03T13:13:17.000Z,100700
2019-02-03T13:14:17.000Z,100708
2019-02-03T13:15:17.000Z,100710
2019-02-03T13:17:17.000Z,100715
2019-02-03T13:18:17.000Z,100711
2019-02-03T13:20:02.000Z,100713
2019-02-03T13:21:17.000Z,100719
2019-02-03T13:22:17.000Z,100717
2019-02-03T13:23:48.000Z,100719
2019-02-03T13:25:17.000Z,100727
2019-02-03T13:27:02.000Z,100729
2019-02-03T13:28:02.000Z,100723
2019-02-03T13:29:17.000Z,100725
2019-02-03T13:30:17.000Z,100720
2019-02-03T13:31:47.000Z,100731
2019-02-03T13:33:17.000Z,100723
2019-02-03T13:35:17.000Z,100721
2019-02-03T13:36:17.000Z,100735
2019-02-03T13:38:17.000Z,100726
2019-02-03T13:39:47.000Z,100726
2019-02-03T13:41:17.000Z,100730
2019-02-03T13:42:47.000Z,100734
2019-02-03T13:44:17.000Z,100744
2019-02-03T13:46:17.000Z,100747
2019-02-03T13:47:17.000Z,100742
2019-02-03T13:49:17.000Z,100747
2019-02-03T13:51:17.000Z,100748
2019-02-03T13:53:17.000Z,100750
2019-02-03T13:55:18.000Z,100751
2019-02-03T13:56:48.000Z,100746
2019-02-03T13:58:18.000Z,100758
2019-02-03T14:00:18.000Z,100758
2019-02-03T14:01:18.000Z,100761
2019-02-03T14:03:18.000Z,100761
2019-02-03T14:04:18.000Z,100760
2019-02-03T14:06:18.000Z,100760
2019-02-03T14:08:02.000Z,100765
2019-02-03T14:09:18.000Z,100767
2019-02-03T14:10:18.000Z,100767
2019-02-03T14:11:18.000Z,100763
2019-02-03T14:12:48.000Z,100756
2019-02-03T14:14:18.000Z,100761
2019-02-03T14:16:02.000Z,100767
2019-02-03T14:17:18.000Z,100771
2019-02-03T14:19:03.000Z,100771
2019-02-03T14:20:18.000Z,100770
2019-02-03T14:22:18.000Z,100772
2019-02-03T14:24:02.000Z,100764
2019-02-03T14:25:18.000Z,100767
2019-02-03T14:27:18.000Z,100780
2019-02-03T14:29:18.000Z,100778
2019-02-03T14:30:48.000Z,100771
2019-02-03T14:32:18.000Z,100783
2019-02-03T14:33:18.000Z,100775
2019-02-03T14:35:18.000Z,100782
2019-02-03T14:37:18.000Z,100785
2019-02-03T14:39:02.000Z,100784
2019-02-03T14:40:03.000Z,100783
2019-02-03T14:41:18.000Z,100789
2019-02-03T14:42:48.000Z,100786
2019-02-03T14:44:18.000Z,100792
2019-02-03T14:45:47.000Z,100789
2019-02-03T14:47:03.000Z,100789
2019-02-03T14:49:18.000Z,100796
2019-02-03T14:50:18.000Z,100800
2019-02-03T14:51:18.000Z,100800
2019-02-03T14:53:02.000Z,100803
2019-02-03T14:54:18.000Z,100802
2019-02-03T14:55:48.000Z,100798
2019-02-03T14:57:18.000Z,100794
2019-02-03T14:58:18.000Z,100798
2019-02-03T15:00:18.000Z,100792
2019-02-03T15:01:18.000Z,100802
2019-02-03T15:03:18.000Z,100804
2019-02-03T15:05:03.000Z,100806
2019-02-03T15:06:18.000Z,100815
2019-02-03T15:08:18.000Z,100803
2019-02-03T15:09:48.000Z,100814
2019-02-03T15:11:18.000Z,100815
2019-02-03T15:13:03.000Z,100814
2019-02-03T15:14:18.000Z,100817
2019-02-03T15:15:18.000Z,100820
2019-02-03T15:16:18.000Z,100823
2019-02-03T15:17:48.000Z,100820
2019-02-03T15:19:18.000Z,100819
2019-02-03T15:21:03.000Z,100824
2019-02-03T15:22:03.000Z,100824
2019-02-03T15:23:18.000Z,100828
2019-02-03T15:25:03.000Z,100827
2019-02-03T15:26:03.000Z,100830
2019-02-03T15:27:18.000Z,100833
2019-02-03T15:29:18.000Z,100833
2019-02-03T15:30:47.000Z,100835
2019-02-03T15:32:03.000Z,100843
2019-02-03T15:33:18.000Z,100837
2019-02-03T15:34:48.000Z,100847
2019-02-03T15:36:18.000Z,100844
2019-02-03T15:38:03.000Z,100848
2019-02-03T15:39:18.000Z,100854
2019-02-03T15:41:18.000Z,100853
2019-02-03T15:42:48.000Z,100852
2019-02-03T15:44:18.000Z,100865
2019-02-03T15:46:03.000Z,100862
2019-02-03T15:47:18.000Z,100868
2019-02-03T15:48:18.000Z,100868
2019-02-03T15:50:18.000Z,100860
2019-02-03T15:52:03.000Z,100866
2019-02-03T15:53:03.000Z,100868
2019-02-03T15:55:18.000Z,100870
2019-02-03T15:57:03.000Z,100873
2019-02-03T15:58:18.000Z,100868
2019-02-03T16:00:03.000Z,100872
2019-02-03T16:01:03.000Z,100871
2019-02-03T16:03:18.000Z,100876
2019-02-03T16:05:18.000Z,100878
2019-02-03T16:06:48.000Z,100881
2019-02-03T16:08:18.000Z,100879
2019-02-03T16:10:03.000Z,100879
2019-02-03T16:11:18.000Z,100881
2019-02-03T16:13:18.000Z,100885
2019-02-03T16:14:48.000Z,100884
2019-02-03T16:16:18.000Z,100883
2019-02-03T16:18:03.000Z,100881
2019-02-03T16:19:18.000Z,100885
2019-02-03T16:21:18.000Z,100886
2019-02-03T16:22:48.000Z,100883
2019-02-03T16:24:18.000Z,100893
2019-02-03T16:25:18.000Z,100886
2019-02-03T16:26:18.000Z,100893
2019-02-03T16:27:48.000Z,100891
2019-02-03T16:29:18.000Z,100901
2019-02-03T16:31:18.000Z,100899
2019-02-03T16:32:18.000Z,100907
2019-02-03T16:34:03.000Z,100908
2019-02-03T16:35:03.000Z,100909
2019-02-03T16:37:03.000Z,100912
2019-02-03T16:38:18.000Z,100919
2019-02-03T16:40:03.000Z,100925
2019-02-03T16:42:18.000Z,100931
2019-02-03T16:43:49.000Z,100935
2019-02-03T16:45:03.000Z,100931
2019-02-03T16:47:03.000Z,100931
2019-02-03T16:49:03.000Z,100937
2019-02-03T16:50:48.000Z,100932
2019-02-03T16:52:18.000Z,100940
2019-02-03T16:53:18.000Z,100932
2019-02-03T16:55:03.000Z,100940
2019-02-03T16:56:03.000Z,100938
2019-02-03T16:58:18.000Z,100937
2019-02-03T17:00:18.000Z,100943
2019-02-03T17:02:03.000Z,100941
2019-02-03T17:04:03.000Z,100948
2019-02-03T17:06:18.000Z,100954
2019-02-03T17:08:18.000Z,100960
2019-02-03T17:09:48.000Z,100962
2019-02-03T17:11:03.000Z,100960
2019-02-03T17:13:18.000Z,100967
2019-02-03T17:15:18.000Z,100970
2019-02-03T17:16:18.000Z,100978
2019-02-03T17:17:48.000Z,100972
2019-02-03T17:20:03.000Z,100970
2019-02-03T17:21:18.000Z,100978
2019-02-03T17:22:18.000Z,100982
2019-02-03T17:24:03.000Z,100978
2019-02-03T17:25:48.000Z,100981
2019-02-03T17:28:03.000Z,100997
2019-02-03T17:30:18.000Z,100994
2019-02-03T17:32:18.000Z,100996
2019-02-03T17:33:18.000Z,101000
2019-02-03T17:35:03.000Z,101001
2019-02-03T17:37:18.000Z,101006
2019-02-03T17:38:18.000Z,101000
2019-02-03T17:40:18.000Z,101012
2019-02-03T17:41:48.000Z,101011
2019-02-03T17:43:18.000Z,101011
2019-02-03T17:45:03.000Z,101010
2019-02-03T17:46:18.000Z,101015
2019-02-03T17:48:18.000Z,101017
2019-02-03T17:49:48.000Z,101020
2019-02-03T17:51:18.000Z,101021
2019-02-03T17:53:03.000Z,101020
2019-02-03T17:54:18.000Z,101025
2019-02-03T17:56:18.000Z,101023
2019-02-03T17:57:18.000Z,101027
2019-02-03T17:59:18.000Z,101032
2019-02-03T18:01:03.000Z,101034
2019-02-03T18:02:18.000Z,101034
2019-02-03T18:04:03.000Z,101029
2019-02-03T18:05:18.000Z,101040
2019-02-03T18:07:03.000Z,101042
2019-02-03T18:08:03.000Z,101044
2019-02-03T18:10:18.000Z,101045
2019-02-03T18:12:18.000Z,101047
2019-02-03T18:13:48.000Z,101046
2019-02-03T18:15:03.000Z,101044
2019-02-03T18:16:03.000Z,101050
2019-02-03T18:17:18.000Z,101041
2019-02-03T18:18:18.000Z,101046
2019-02-03T18:20:18.000Z,101046
2019-02-03T18:21:48.000Z,101048
2019-02-03T18:23:18.000Z,101045
2019-02-03T18:25:18.000Z,101045
2019-02-03T18:26:18.000Z,101046
2019-02-03T18:28:18.000Z,101047
2019-02-03T18:29:48.000Z,101048
2019-02-03T18:31:18.000Z,101051
2019-02-03T18:33:03.000Z,101056
2019-02-03T18:34:18.000Z,101056
2019-02-03T18:36:18.000Z,101058
2019-02-03T18:37:18.000Z,101064
2019-02-03T18:39:03.000Z,101057
2019-02-03T18:40:03.000Z,101062
2019-02-03T18:41:18.000Z,101061
2019-02-03T18:43:18.000Z,101067
2019-02-03T18:45:18.000Z,101062
2019-02-03T18:47:18.000Z,101064
2019-02-03T18:48:48.000Z,101061
2019-02-03T18:50:18.000Z,101065
2019-02-03T18:51:18.000Z,101063
2019-02-03T18:53:18.000Z,101069
2019-02-03T18:55:18.000Z,101071
2019-02-03T18:56:48.000Z,101074
2019-02-03T18:58:18.000Z,101079
2019-02-03T18:59:18.000Z,101079
2019-02-03T19:00:18.000Z,101080
2019-02-03T19:01:48.000Z,101079
2019-02-03T19:03:18.000Z,101079
2019-02-03T19:05:03.000Z,101078
2019-02-03T19:06:18.000Z,101079
2019-02-03T19:08:18.000Z,101082
2019-02-03T19:09:48.000Z,101088
2019-02-03T19:11:18.000Z,101091
2019-02-03T19:13:03.000Z,101099
2019-02-03T19:14:18.000Z,101090
2019-02-03T19:16:18.000Z,101100
2019-02-03T19:17:48.000Z,101097
2019-02-03T19:19:18.000Z,101101
2019-02-03T19:21:02.000Z,101107
2019-02-03T19:22:17.000Z,101106
2019-02-03T19:24:17.000Z,101106
2019-02-03T19:25:17.000Z,101106
2019-02-03T19:27:17.000Z,101108
2019-02-03T19:29:02.000Z,101113
2019-02-03T19:30:17.000Z,101113
2019-02-03T19:32:02.000Z,101118
2019-02-03T19:33:48.000Z,101119
2019-02-03T19:35:17.000Z,101117
2019-02-03T19:36:47.000Z,101115
2019-02-03T19:38:02.000Z,101119
2019-02-03T19:39:17.000Z,101120
2019-02-03T19:40:17.000Z,101118
2019-02-03T19:41:48.000Z,101127
2019-02-03T19:43:17.000Z,101124
2019-02-03T19:44:57.000Z,101125
2019-02-03T19:46:17.000Z,101132
2019-02-03T19:47:17.000Z,101128
2019-02-03T19:49:17.000Z,101130
2019-02-03T19:51:17.000Z,101130
2019-02-03T19:53:02.000Z,101136
2019-02-03T19:54:17.000Z,101137
2019-02-03T19:56:17.000Z,101141
2019-02-03T19:57:17.000Z,101137
2019-02-03T19:59:17.000Z,101145
2019-02-03T20:01:02.000Z,101144
2019-02-03T20:02:17.000Z,101140
2019-02-03T20:04:17.000Z,101144
2019-02-03T20:05:47.000Z,101147
2019-02-03T20:07:17.000Z,101148
2019-02-03T20:09:02.000Z,101158
2019-02-03T20:10:17.000Z,101158
2019-02-03T20:11:17.000Z,101156
2019-02-03T20:13:17.000Z,101161
2019-02-03T20:15:02.000Z,101165
2019-02-03T20:16:02.000Z,101160
2019-02-03T20:17:17.000Z,101165
2019-02-03T20:19:17.000Z,101162
2019-02-03T20:20:17.000Z,101171
2019-02-03T20:21:47.000Z,101165
2019-02-03T20:23:02.000Z,101170
2019-02-03T20:24:17.000Z,101177
2019-02-03T20:25:18.000Z,101179
2019-02-03T20:27:03.000Z,101181
2019-02-03T20:28:18.000Z,101180
2019-02-03T20:29:18.000Z,101185
2019-02-03T20:31:18.000Z,101184
2019-02-03T20:33:03.000Z,101188